createdAt,value
2022-08-12T00:03:57.567Z,60.78
2022-08-12T00:09:17.526Z,61.14
2022-08-12T00:14:37.499Z,61.58
2022-08-12T00:19:57.304Z,62.45
2022-08-12T00:25:20.956Z,61.87
2022-08-12T00:31:01.113Z,62.67
2022-08-12T00:36:34.888Z,63.24
2022-08-12T00:41:56.557Z,63.82
2022-08-12T00:46:59.734Z,63.92
2022-08-12T00:52:11.393Z,63.54
2022-08-12T00:57:12.758Z,64.27
2022-08-12T01:02:21.197Z,64.51
2022-08-12T01:07:43.120Z,64.59
2022-08-12T01:12:44.768Z,64.95
2022-08-12T01:17:46.302Z,65.87
2022-08-12T01:22:58.512Z,65.29
2022-08-12T01:28:01.870Z,65.65
2022-08-12T01:33:05.992Z,66.06
2022-08-12T01:38:11.110Z,67.31
2022-08-12T01:43:15.884Z,67.24
2022-08-12T01:48:23.159Z,67.36
2022-08-12T01:53:26.087Z,67.71
2022-08-12T01:58:55.302Z,67.81
2022-08-12T02:04:25.133Z,68.42
2022-08-12T02:09:51.996Z,68.95
2022-08-12T02:15:01.402Z,69.67
2022-08-12T02:20:12.892Z,68.86
2022-08-12T02:25:26.859Z,68.80
2022-08-12T02:30:33.240Z,69.36
2022-08-12T02:35:43.141Z,69.64
2022-08-12T02:40:48.820Z,70.05
2022-08-12T02:45:56.590Z,70.70
2022-08-12T02:51:04.322Z,71.78
2022-08-12T02:56:06.526Z,72.10
2022-08-12T03:01:10.251Z,72.05
2022-08-12T03:06:17.534Z,72.21
2022-08-12T03:11:23.498Z,72.07
2022-08-12T03:16:26.807Z,72.47
2022-08-12T03:21:54.660Z,72.77
2022-08-12T03:26:51.684Z,73.07
2022-08-12T03:31:55.879Z,73.59
2022-08-12T03:36:58.559Z,73.95
2022-08-12T03:42:04.252Z,74.13
2022-08-12T03:47:30.521Z,73.90
2022-08-12T03:52:50.564Z,74.35
2022-08-12T03:58:10.416Z,74.45
2022-08-12T04:03:30.949Z,74.95
2022-08-12T04:08:32.478Z,75.35
2022-08-12T04:13:34.081Z,75.51
2022-08-12T04:18:35.828Z,75.33
2022-08-12T04:23:47.646Z,75.42
2022-08-12T04:28:49.676Z,75.78
2022-08-12T04:33:51.349Z,76.10
2022-08-12T04:38:59.563Z,76.25
2022-08-12T04:44:02.571Z,75.84
2022-08-12T04:49:05.162Z,75.57
2022-08-12T04:54:06.549Z,75.01
2022-08-12T04:59:07.900Z,74.01
2022-08-12T05:04:09.403Z,74.29
2022-08-12T05:09:13.391Z,73.43
2022-08-12T05:14:15.146Z,72.52
2022-08-12T05:19:18.493Z,73.35
2022-08-12T05:24:23.704Z,72.97
2022-08-12T05:30:06.206Z,71.76
2022-08-12T05:34:47.741Z,71.15
2022-08-12T05:39:49.807Z,71.51
2022-08-12T05:44:51.175Z,72.42
2022-08-12T05:49:53.593Z,62.38
2022-08-12T05:54:57.866Z,52.42
2022-08-12T05:59:59.461Z,45.77
2022-08-12T06:05:00.879Z,42.78
2022-08-12T06:10:02.250Z,40.85
2022-08-12T06:15:04.345Z,41.41
2022-08-12T06:20:27.208Z,42.56
2022-08-12T06:25:29.163Z,41.07
2022-08-12T06:30:36.856Z,40.72
2022-08-12T06:35:48.620Z,42.83
2022-08-12T06:41:14.824Z,40.78
2022-08-12T06:46:16.182Z,36.04
2022-08-12T06:51:19.847Z,35.35
2022-08-12T06:56:27.345Z,36.92
2022-08-12T07:01:50.819Z,35.68
2022-08-12T07:06:55.728Z,33.59
2022-08-12T07:11:57.122Z,32.03
2022-08-12T07:17:02.327Z,32.80
2022-08-12T07:22:06.443Z,28.56
2022-08-12T07:27:07.839Z,31.30
2022-08-12T07:32:09.173Z,29.03
2022-08-12T07:37:10.755Z,31.30
2022-08-12T07:42:12.128Z,29.75
2022-08-12T07:47:13.476Z,27.15
2022-08-12T07:52:17.013Z,24.77
2022-08-12T07:57:18.593Z,24.24
2022-08-12T08:02:20.011Z,25.66
2022-08-12T08:07:30.693Z,22.27
2022-08-12T08:12:51.225Z,23.55
2022-08-12T08:17:57.845Z,23.53
2022-08-12T08:23:00.897Z,24.15
2022-08-12T08:28:03.563Z,21.23
2022-08-12T08:33:24.623Z,21.35
2022-08-12T08:38:33.059Z,21.87
2022-08-12T08:43:43.942Z,22.94
2022-08-12T08:48:46.116Z,20.87
2022-08-12T08:53:51.913Z,19.93
2022-08-12T08:58:54.552Z,19.90
2022-08-12T09:05:09.309Z,19.56
2022-08-12T09:09:17.706Z,18.51
2022-08-12T09:14:29.148Z,19.72
2022-08-12T09:19:30.935Z,17.87
2022-08-12T09:24:37.218Z,20.28
2022-08-12T09:30:08.937Z,18.88
2022-08-12T09:34:59.906Z,19.21
2022-08-12T09:42:07.369Z,18.43
2022-08-12T09:45:24.214Z,19.99
2022-08-12T09:50:50.677Z,18.91
2022-08-12T09:56:01.206Z,18.74
2022-08-12T10:01:22.854Z,18.29
2022-08-12T10:06:32.355Z,19.58
2022-08-12T10:12:10.858Z,17.81
2022-08-12T10:17:14.519Z,18.41
2022-08-12T10:22:16.946Z,17.64
2022-08-12T10:28:04.550Z,16.88
2022-08-12T10:33:18.005Z,17.54
2022-08-12T10:38:37.371Z,18.47
2022-08-12T10:43:55.343Z,19.58
2022-08-12T10:49:06.976Z,18.89
2022-08-12T10:54:19.691Z,17.15
2022-08-12T11:00:29.263Z,17.77
2022-08-12T11:04:59.464Z,17.08
2022-08-12T11:10:20.249Z,18.04
2022-08-12T11:16:02.424Z,18.34
2022-08-12T11:20:52.122Z,18.00
2022-08-12T11:25:58.162Z,18.63
2022-08-12T11:31:01.306Z,17.40
2022-08-12T11:36:14.782Z,17.52
2022-08-12T11:41:16.584Z,17.95
2022-08-12T11:46:29.638Z,17.59
2022-08-12T11:51:36.308Z,17.72
2022-08-12T11:56:42.866Z,19.27
2022-08-12T12:02:02.458Z,19.06
2022-08-12T12:07:11.374Z,18.79
2022-08-12T12:12:12.989Z,19.50
2022-08-12T12:17:14.338Z,18.96
2022-08-12T12:22:32.014Z,17.85
2022-08-12T12:28:04.717Z,19.04
2022-08-12T12:33:08.940Z,18.99
2022-08-12T12:38:12.086Z,18.23
2022-08-12T12:43:14.241Z,19.51
2022-08-12T12:48:20.139Z,21.10
2022-08-12T12:54:08.095Z,20.62
2022-08-12T12:58:46.953Z,21.31
2022-08-12T13:03:48.948Z,20.53
2022-08-12T13:08:50.868Z,20.87
2022-08-12T13:14:09.649Z,22.05
2022-08-12T13:19:15.183Z,21.74
2022-08-12T13:24:16.634Z,20.14
2022-08-12T13:29:20.473Z,20.84
2022-08-12T13:34:29.570Z,21.11
2022-08-12T13:39:36.453Z,20.50
2022-08-12T13:44:37.868Z,20.93
2022-08-12T13:49:53.641Z,19.70
2022-08-12T13:54:56.614Z,19.53
2022-08-12T14:00:00.759Z,20.31
2022-08-12T14:05:03.392Z,19.23
2022-08-12T14:10:39.220Z,18.45
2022-08-12T14:15:53.978Z,19.40
2022-08-12T14:21:01.781Z,19.84
2022-08-12T14:26:06.981Z,19.26
2022-08-12T14:31:18.256Z,19.81
2022-08-12T14:36:21.075Z,20.01
2022-08-12T14:41:36.557Z,20.18
2022-08-12T14:46:38.910Z,19.44
2022-08-12T14:53:13.534Z,20.21
2022-08-12T14:57:20.627Z,19.67
2022-08-12T15:02:26.494Z,20.21
2022-08-12T15:07:33.787Z,20.78
2022-08-12T15:12:50.979Z,19.64
2022-08-12T15:17:59.227Z,19.75
2022-08-12T15:23:01.211Z,20.33
2022-08-12T15:28:05.709Z,20.82
2022-08-12T15:33:14.999Z,20.33
2022-08-12T15:38:19.550Z,20.81
2022-08-12T15:43:51.807Z,20.50
2022-08-12T15:48:46.733Z,20.50
2022-08-12T15:54:34.160Z,20.88
2022-08-12T15:59:51.959Z,20.56
2022-08-12T16:04:51.450Z,20.80
2022-08-12T16:10:04.756Z,20.78
2022-08-12T16:15:13.252Z,20.11
2022-08-12T16:20:22.695Z,20.58
2022-08-12T16:26:02.751Z,20.67
2022-08-12T16:30:56.279Z,21.13
2022-08-12T16:35:57.623Z,21.38
2022-08-12T16:41:01.436Z,21.62
2022-08-12T16:46:07.735Z,21.42
2022-08-12T16:51:25.520Z,21.50
2022-08-12T16:56:28.889Z,22.16
2022-08-12T17:01:35.927Z,22.49
2022-08-12T17:06:43.301Z,22.95
2022-08-12T17:11:45.381Z,22.89
2022-08-12T17:16:52.228Z,23.02
2022-08-12T17:22:02.216Z,23.73
2022-08-12T17:27:12.826Z,23.48
2022-08-12T17:32:22.148Z,23.71
2022-08-12T17:37:29.516Z,23.84
2022-08-12T17:42:34.130Z,23.92
2022-08-12T17:47:36.926Z,24.32
2022-08-12T17:52:38.811Z,24.26
2022-08-12T17:57:42.534Z,24.22
2022-08-12T18:02:48.224Z,24.66
2022-08-12T18:07:55.021Z,24.93
2022-08-12T18:13:01.229Z,25.17
2022-08-12T18:18:03.761Z,25.76
2022-08-12T18:23:06.034Z,25.39
2022-08-12T18:28:16.437Z,26.01
2022-08-12T18:33:23.748Z,26.68
2022-08-12T18:38:26.947Z,27.89
2022-08-12T18:43:28.373Z,28.60
2022-08-12T18:48:32.081Z,29.85
2022-08-12T18:54:07.001Z,30.04
2022-08-12T18:58:59.829Z,31.67
2022-08-12T19:04:08.884Z,33.77
2022-08-12T19:09:14.570Z,33.24
2022-08-12T19:14:25.434Z,33.85
2022-08-12T19:19:42.020Z,35.30
2022-08-12T19:25:03.165Z,36.08
2022-08-12T19:30:09.229Z,36.91
2022-08-12T19:40:34.400Z,37.98
2022-08-12T19:45:43.472Z,38.84
2022-08-12T19:50:52.707Z,39.58
2022-08-12T19:55:55.498Z,40.44
2022-08-12T20:00:56.884Z,40.60
2022-08-12T20:06:05.389Z,41.25
2022-08-12T20:12:11.141Z,41.71
2022-08-12T20:16:52.427Z,42.60
2022-08-12T20:21:58.179Z,42.84
2022-08-12T20:27:00.228Z,42.95
2022-08-12T20:32:04.020Z,43.84
2022-08-12T20:37:10.253Z,45.00
2022-08-12T20:42:11.761Z,44.27
2022-08-12T20:47:19.729Z,45.54
2022-08-12T20:52:22.518Z,44.75
2022-08-12T20:57:38.486Z,46.93
2022-08-12T21:02:47.275Z,46.75
2022-08-12T21:07:52.653Z,47.80
2022-08-12T21:12:54.244Z,47.38
2022-08-12T21:18:12.003Z,47.51
2022-08-12T21:23:25.456Z,47.88
2022-08-12T21:28:33.459Z,47.68
2022-08-12T21:34:06.190Z,48.00
2022-08-12T21:39:18.015Z,48.42
2022-08-12T21:44:24.592Z,49.26
2022-08-12T21:49:53.803Z,49.17
2022-08-12T21:54:59.591Z,49.56
2022-08-12T22:00:00.948Z,50.28
2022-08-12T22:05:22.228Z,51.46
2022-08-12T22:10:28.226Z,51.10
2022-08-12T22:15:30.675Z,52.63
2022-08-12T22:20:32.009Z,51.97
2022-08-12T22:25:33.346Z,52.63
2022-08-12T22:30:59.904Z,51.75
2022-08-12T22:36:02.029Z,51.09
2022-08-12T22:41:06.514Z,51.24
2022-08-12T22:46:22.715Z,51.86
2022-08-12T22:51:57.713Z,52.53
2022-08-12T22:56:55.476Z,53.17
2022-08-12T23:02:01.962Z,52.53
2022-08-12T23:07:05.464Z,52.39
2022-08-12T23:12:08.536Z,53.25
2022-08-12T23:17:41.048Z,53.35
2022-08-12T23:23:05.768Z,54.46
2022-08-12T23:28:29.927Z,54.05
2022-08-12T23:34:01.432Z,54.21
2022-08-12T23:39:01.657Z,53.72
2022-08-12T23:44:06.725Z,54.38
2022-08-12T23:49:27.063Z,55.02
2022-08-12T23:54:33.255Z,55.33
2022-08-12T23:59:47.203Z,55.58
